Аэропорт
Международный аэропорт Лунцзя (ZYCC)

 ZYCC / CGQ

China
CN-22
Лунцзя
 43.99620, 125.68500  / 706 ft

 ZYCC 181900Z 27002MPS 240V300 9999 BKN030 14/11 Q1009 NOSIG
 TAF ZYCC 180908Z 1812/1912 29004MPS 6000 SCT030 TX15/1906Z TN12/1821Z

2020 © VATRUS division (Privacy Policy)